createdAt,value
2019-04-22T00:00:34.025Z,12.18
2019-04-22T00:01:31.192Z,12.25
2019-04-22T00:02:28.514Z,12.15
2019-04-22T00:03:33.956Z,12.15
2019-04-22T00:04:39.293Z,12.19
2019-04-22T00:05:50.736Z,12.00
2019-04-22T00:06:50.057Z,12.00
2019-04-22T00:07:48.745Z,11.98
2019-04-22T00:08:56.852Z,12.11
2019-04-22T00:09:51.531Z,12.04
2019-04-22T00:10:56.056Z,12.00
2019-04-22T00:11:54.350Z,12.05
2019-04-22T00:12:52.909Z,12.16
2019-04-22T00:13:51.926Z,12.13
2019-04-22T00:14:48.255Z,12.13
2019-04-22T00:15:53.894Z,12.07
2019-04-22T00:16:56.674Z,12.01
2019-04-22T00:20:03.063Z,11.93
2019-04-22T00:20:50.457Z,11.98
2019-04-22T00:21:55.124Z,11.93
2019-04-22T00:22:51.969Z,11.93
2019-04-22T00:23:56.781Z,11.93
2019-04-22T00:24:51.242Z,11.98
2019-04-22T00:25:59.727Z,11.85
2019-04-22T00:26:58.789Z,11.90
2019-04-22T00:27:59.067Z,11.97
2019-04-22T00:30:54.829Z,11.78
2019-04-22T00:31:52.875Z,11.75
2019-04-22T00:32:49.996Z,11.70
2019-04-22T00:33:51.718Z,11.74
2019-04-22T00:34:48.834Z,11.72
2019-04-22T00:35:53.148Z,11.74
2019-04-22T00:36:52.359Z,11.84
2019-04-22T00:37:56.759Z,11.81
2019-04-22T00:38:56.268Z,11.77
2019-04-22T00:39:51.825Z,11.79
2019-04-22T00:40:52.224Z,11.70
2019-04-22T00:41:57.196Z,11.77
2019-04-22T00:42:55.438Z,11.66
2019-04-22T00:43:59.695Z,11.66
2019-04-22T00:44:55.872Z,11.66
2019-04-22T00:45:53.975Z,11.66
2019-04-22T00:46:52.556Z,11.54
2019-04-22T00:47:53.049Z,11.62
2019-04-22T00:49:33.153Z,11.63
2019-04-22T00:50:58.381Z,11.63
2019-04-22T00:51:58.313Z,11.59
2019-04-22T00:52:55.871Z,11.59
2019-04-22T00:54:12.310Z,11.63
2019-04-22T00:54:58.903Z,11.62
2019-04-22T00:55:54.345Z,11.66
2019-04-22T00:56:48.115Z,11.63
2019-04-22T00:57:56.205Z,11.57
2019-04-22T00:59:06.010Z,11.57
2019-04-22T00:59:52.270Z,11.67
2019-04-22T01:01:00.229Z,11.64
2019-04-22T01:01:54.346Z,11.72
2019-04-22T01:02:54.352Z,11.70
2019-04-22T01:03:59.060Z,11.79
2019-04-22T01:04:56.069Z,11.79
2019-04-22T01:05:57.102Z,11.67
2019-04-22T01:06:51.272Z,11.69
2019-04-22T01:07:49.191Z,11.72
2019-04-22T01:09:55.834Z,11.62
2019-04-22T01:10:57.014Z,11.63
2019-04-22T01:11:56.311Z,11.53
2019-04-22T01:12:51.216Z,11.46
2019-04-22T01:13:50.034Z,11.45
2019-04-22T01:14:53.811Z,11.42
2019-04-22T01:16:03.207Z,11.41
2019-04-22T01:16:57.823Z,11.42
2019-04-22T01:17:53.002Z,11.44
2019-04-22T01:18:49.080Z,11.35
2019-04-22T01:21:06.947Z,11.30
2019-04-22T01:21:54.564Z,11.23
2019-04-22T01:22:46.068Z,11.21
2019-04-22T01:23:48.674Z,11.27
2019-04-22T01:24:50.274Z,11.17
2019-04-22T01:25:41.045Z,11.23
2019-04-22T01:26:43.506Z,11.21
2019-04-22T01:27:46.340Z,11.17
2019-04-22T01:28:39.650Z,11.12
2019-04-22T01:29:44.094Z,11.09
2019-04-22T01:30:34.985Z,11.06
2019-04-22T01:31:31.450Z,11.09
2019-04-22T01:32:33.751Z,11.03
2019-04-22T01:33:35.278Z,10.99
2019-04-22T01:34:40.441Z,11.05
2019-04-22T01:35:38.641Z,11.01
2019-04-22T01:36:48.657Z,11.11
2019-04-22T01:37:46.107Z,11.06
2019-04-22T01:38:56.343Z,11.08
2019-04-22T01:39:50.061Z,11.01
2019-04-22T01:40:54.152Z,11.05
2019-04-22T01:41:59.881Z,11.02
2019-04-22T01:43:00.397Z,11.03
2019-04-22T01:43:58.715Z,10.99
2019-04-22T01:44:50.989Z,11.02
2019-04-22T01:45:54.693Z,11.03
2019-04-22T01:46:49.405Z,11.03
2019-04-22T01:47:49.045Z,11.03
2019-04-22T01:48:56.816Z,11.06
2019-04-22T01:49:57.894Z,10.98
2019-04-22T01:50:50.089Z,10.93
2019-04-22T01:52:01.554Z,11.01
2019-04-22T01:53:08.625Z,10.94
2019-04-22T01:54:00.460Z,10.95
2019-04-22T01:55:14.055Z,10.91
2019-04-22T01:55:55.434Z,10.90
2019-04-22T01:56:53.862Z,10.91
2019-04-22T01:57:47.587Z,10.87
2019-04-22T01:58:48.232Z,10.90
2019-04-22T01:59:46.238Z,10.91
2019-04-22T02:00:53.639Z,10.90
2019-04-22T02:02:50.830Z,10.90
2019-04-22T02:03:57.882Z,10.88
2019-04-22T02:04:53.254Z,10.91
2019-04-22T02:05:53.644Z,10.93
2019-04-22T02:07:50.283Z,10.91
2019-04-22T02:09:53.687Z,10.99
2019-04-22T02:10:54.633Z,11.08
2019-04-22T02:11:57.202Z,10.99
2019-04-22T02:12:53.313Z,10.98
2019-04-22T02:13:56.729Z,10.93
2019-04-22T02:14:52.250Z,10.98
2019-04-22T02:15:52.513Z,10.91
2019-04-22T02:16:56.223Z,10.95
2019-04-22T02:17:59.305Z,10.95
2019-04-22T02:18:53.206Z,10.99
2019-04-22T02:20:48.863Z,11.01
2019-04-22T02:21:48.569Z,10.98
2019-04-22T02:23:17.626Z,10.93
2019-04-22T02:24:02.373Z,10.93
2019-04-22T02:24:53.297Z,10.91
2019-04-22T02:25:58.001Z,11.02
2019-04-22T02:26:48.231Z,10.93
2019-04-22T02:27:55.505Z,10.91
2019-04-22T02:28:52.026Z,10.99
2019-04-22T02:31:18.067Z,10.98
2019-04-22T02:32:02.288Z,10.94
2019-04-22T02:33:15.507Z,10.93
2019-04-22T02:34:12.004Z,10.95
2019-04-22T02:35:03.436Z,10.91
2019-04-22T02:37:54.818Z,10.94
2019-04-22T02:39:57.644Z,10.91
2019-04-22T02:41:55.088Z,10.95
2019-04-22T02:43:01.359Z,10.88
2019-04-22T02:44:53.598Z,10.93
2019-04-22T02:46:15.682Z,10.84
2019-04-22T02:47:10.003Z,10.90
2019-04-22T02:47:59.281Z,10.91
2019-04-22T02:49:04.069Z,10.83
2019-04-22T02:49:53.377Z,10.76
2019-04-22T02:51:06.244Z,10.83
2019-04-22T02:51:52.132Z,10.76
2019-04-22T02:52:50.551Z,10.87
2019-04-22T02:56:09.269Z,10.75
2019-04-22T02:56:53.019Z,10.72
2019-04-22T02:58:12.575Z,10.80
2019-04-22T02:59:03.835Z,10.78
2019-04-22T03:00:06.384Z,10.73
2019-04-22T03:05:07.389Z,10.73
2019-04-22T03:06:05.751Z,10.66
2019-04-22T03:06:46.069Z,10.72
2019-04-22T03:07:58.578Z,10.66
2019-04-22T03:09:13.909Z,10.65
2019-04-22T03:09:57.710Z,10.60
2019-04-22T03:12:02.614Z,10.58
2019-04-22T03:12:54.163Z,10.55
2019-04-22T03:15:09.618Z,10.54
2019-04-22T03:16:54.970Z,10.46
2019-04-22T03:20:02.040Z,10.47
2019-04-22T03:20:58.250Z,10.35
2019-04-22T03:21:54.630Z,10.35
2019-04-22T03:23:13.691Z,10.29
2019-04-22T03:24:08.883Z,10.32
2019-04-22T03:25:24.190Z,10.24
2019-04-22T03:26:12.368Z,10.26
2019-04-22T03:27:00.715Z,10.25
2019-04-22T03:28:12.068Z,10.29
2019-04-22T03:30:18.848Z,10.24
2019-04-22T03:34:38.286Z,10.14
2019-04-22T03:36:06.747Z,10.11
2019-04-22T03:37:56.329Z,10.16
2019-04-22T03:40:05.694Z,10.07
2019-04-22T03:42:05.745Z,10.14
2019-04-22T03:43:08.468Z,10.18
2019-04-22T03:44:10.234Z,10.13
2019-04-22T03:45:00.560Z,10.10
2019-04-22T03:45:58.818Z,10.06
2019-04-22T03:49:14.794Z,10.14
2019-04-22T03:50:58.520Z,10.06
2019-04-22T03:52:05.823Z,10.13
2019-04-22T03:53:05.866Z,10.07
2019-04-22T03:54:19.121Z,10.02
2019-04-22T03:55:07.369Z,10.04
2019-04-22T03:56:10.350Z,10.09
2019-04-22T03:57:56.099Z,10.07
2019-04-22T04:00:03.923Z,10.02
2019-04-22T04:00:55.542Z,10.09
2019-04-22T04:04:19.146Z,10.04
2019-04-22T04:04:49.466Z,9.99
2019-04-22T04:07:20.554Z,10.04
2019-04-22T04:09:04.596Z,9.99
2019-04-22T04:10:01.078Z,10.04
2019-04-22T04:11:15.208Z,10.01
2019-04-22T04:11:59.365Z,10.04
2019-04-22T04:14:05.162Z,9.99
2019-04-22T04:15:05.458Z,10.01
2019-04-22T04:15:53.533Z,10.02
2019-04-22T04:17:08.876Z,9.96
2019-04-22T04:19:13.834Z,9.99
2019-04-22T04:22:00.720Z,9.91
2019-04-22T04:25:57.418Z,9.89
2019-04-22T04:27:07.633Z,9.80
2019-04-22T04:28:27.108Z,9.83
2019-04-22T04:29:06.314Z,9.85
2019-04-22T04:31:09.585Z,9.96
2019-04-22T04:32:06.315Z,10.04
2019-04-22T04:33:00.361Z,10.04
2019-04-22T04:33:54.170Z,10.02
2019-04-22T04:36:03.358Z,9.96
2019-04-22T04:40:08.006Z,10.01
2019-04-22T04:41:03.707Z,10.10
2019-04-22T04:42:04.748Z,10.07
2019-04-22T04:43:07.330Z,10.02
2019-04-22T04:44:03.720Z,9.99
2019-04-22T04:45:54.710Z,10.07
2019-04-22T04:46:58.744Z,10.10
2019-04-22T04:49:57.397Z,10.06
2019-04-22T04:51:11.307Z,10.11
2019-04-22T04:51:55.624Z,10.16
2019-04-22T04:53:14.557Z,10.07
2019-04-22T04:54:05.639Z,10.09
2019-04-22T04:55:11.879Z,10.13
2019-04-22T04:55:53.179Z,10.09
2019-04-22T04:58:04.547Z,10.29
2019-04-22T04:59:05.667Z,10.44
2019-04-22T05:01:52.056Z,10.83
2019-04-22T05:04:14.712Z,10.90
2019-04-22T05:05:06.290Z,11.01
2019-04-22T05:05:57.104Z,11.11
2019-04-22T05:07:56.038Z,11.41
2019-04-22T05:10:00.596Z,11.48
2019-04-22T05:12:01.930Z,11.63
2019-04-22T05:12:57.370Z,11.66
2019-04-22T05:13:57.390Z,11.85
2019-04-22T05:15:00.329Z,11.81
2019-04-22T05:16:10.684Z,11.84
2019-04-22T05:16:54.639Z,11.93
2019-04-22T05:17:58.104Z,12.11
2019-04-22T05:19:56.624Z,12.03
2019-04-22T05:21:53.292Z,12.26
2019-04-22T05:23:55.960Z,12.85
2019-04-22T05:24:56.271Z,12.99
2019-04-22T05:25:48.873Z,13.48
2019-04-22T05:28:55.243Z,13.13
2019-04-22T05:30:08.832Z,13.29
2019-04-22T05:30:47.104Z,13.43
2019-04-22T05:31:51.720Z,13.73
2019-04-22T05:32:52.158Z,14.09
2019-04-22T05:33:48.240Z,14.57
2019-04-22T05:34:48.824Z,14.34
2019-04-22T05:35:49.385Z,13.99
2019-04-22T05:38:56.525Z,13.87
2019-04-22T05:39:52.678Z,14.26
2019-04-22T05:40:52.877Z,14.36
2019-04-22T05:41:48.717Z,14.42
2019-04-22T05:42:52.840Z,14.75
2019-04-22T05:43:50.306Z,14.98
2019-04-22T05:44:49.654Z,15.28
2019-04-22T05:45:51.182Z,15.20
2019-04-22T05:46:49.803Z,15.19
2019-04-22T05:47:52.033Z,15.13
2019-04-22T05:48:56.635Z,15.23
2019-04-22T05:49:47.842Z,15.13
2019-04-22T05:50:54.038Z,14.87
2019-04-22T05:51:48.500Z,15.09
2019-04-22T05:52:49.794Z,15.04
2019-04-22T05:53:48.327Z,15.03
2019-04-22T05:54:50.484Z,15.19
2019-04-22T05:55:51.775Z,15.23
2019-04-22T05:57:04.002Z,15.58
2019-04-22T05:57:51.249Z,16.01
2019-04-22T05:58:53.594Z,15.88
2019-04-22T05:59:57.294Z,15.62
2019-04-22T06:01:13.181Z,15.60
2019-04-22T06:02:06.492Z,15.34
2019-04-22T06:02:52.917Z,15.70
2019-04-22T06:03:50.995Z,15.67
2019-04-22T06:04:53.161Z,15.73
2019-04-22T06:05:47.229Z,16.04
2019-04-22T06:06:51.747Z,16.03
2019-04-22T06:07:49.024Z,16.44
2019-04-22T06:08:55.295Z,16.18
2019-04-22T06:09:52.981Z,16.44
2019-04-22T06:10:55.892Z,16.45
2019-04-22T06:11:36.060Z,16.52
2019-04-22T06:12:46.569Z,16.25
2019-04-22T06:13:45.330Z,16.32
2019-04-22T06:14:49.240Z,16.30
2019-04-22T06:15:49.172Z,16.60
2019-04-22T06:16:50.399Z,16.91
2019-04-22T06:17:58.942Z,16.52
2019-04-22T06:18:52.723Z,16.84
2019-04-22T06:19:51.206Z,16.80
2019-04-22T06:20:56.908Z,16.92
2019-04-22T06:22:09.650Z,16.70
2019-04-22T06:22:50.820Z,16.42
2019-04-22T06:23:54.626Z,16.08
2019-04-22T06:24:52.046Z,15.93
2019-04-22T06:26:09.947Z,15.80
2019-04-22T06:27:01.663Z,15.74
2019-04-22T06:28:00.221Z,16.10
2019-04-22T06:28:51.580Z,16.16
2019-04-22T06:29:46.347Z,15.92
2019-04-22T06:30:53.480Z,16.59
2019-04-22T06:32:10.206Z,16.80
2019-04-22T06:32:47.010Z,16.30
2019-04-22T06:33:54.708Z,16.78
2019-04-22T06:34:48.612Z,17.09
2019-04-22T06:35:48.664Z,17.12
2019-04-22T06:36:55.449Z,17.77
2019-04-22T06:38:09.951Z,17.94
2019-04-22T06:39:44.788Z,18.50
2019-04-22T06:40:55.388Z,18.07
2019-04-22T06:41:53.432Z,18.46
2019-04-22T06:42:52.679Z,18.44
2019-04-22T06:43:56.314Z,18.72
2019-04-22T06:44:51.583Z,18.25
2019-04-22T06:45:45.036Z,18.86
2019-04-22T06:48:49.137Z,18.91
2019-04-22T06:49:48.274Z,19.35
2019-04-22T06:50:47.569Z,19.70
2019-04-22T06:52:08.017Z,19.65
2019-04-22T06:52:55.200Z,19.10
2019-04-22T06:53:48.011Z,18.38
2019-04-22T06:54:52.539Z,18.14
2019-04-22T06:55:45.643Z,17.74
2019-04-22T06:56:53.400Z,17.66
2019-04-22T06:57:45.028Z,18.14
2019-04-22T06:58:51.037Z,18.21
2019-04-22T06:59:52.015Z,18.25
2019-04-22T07:00:44.502Z,18.69
2019-04-22T07:01:52.512Z,18.94
2019-04-22T07:03:10.270Z,18.79
2019-04-22T07:04:53.835Z,20.41
2019-04-22T07:05:49.502Z,20.63
2019-04-22T07:07:52.195Z,20.08
2019-04-22T07:09:46.592Z,19.92
2019-04-22T07:10:49.110Z,19.71
2019-04-22T07:11:48.307Z,19.86
2019-04-22T07:12:49.829Z,20.20
2019-04-22T07:13:51.773Z,19.35
2019-04-22T07:14:48.893Z,19.58
2019-04-22T07:15:50.381Z,19.31
2019-04-22T07:16:51.232Z,18.82
2019-04-22T07:17:50.542Z,18.91
2019-04-22T07:18:49.838Z,19.27
2019-04-22T07:19:43.762Z,19.64
2019-04-22T07:20:51.259Z,19.43
2019-04-22T07:21:52.393Z,19.30
2019-04-22T07:22:45.457Z,19.02
2019-04-22T07:23:53.095Z,19.09
2019-04-22T07:25:46.141Z,19.75
2019-04-22T07:26:45.052Z,19.64
2019-04-22T07:27:50.558Z,19.46
2019-04-22T07:28:43.796Z,19.47
2019-04-22T07:29:55.676Z,19.71
2019-04-22T07:30:48.100Z,19.95
2019-04-22T07:31:50.499Z,20.73
2019-04-22T07:33:05.040Z,20.81
2019-04-22T07:33:51.784Z,21.30
2019-04-22T07:35:54.925Z,22.08
2019-04-22T07:36:54.865Z,21.90
2019-04-22T07:38:05.874Z,21.70
2019-04-22T07:38:42.563Z,21.83
2019-04-22T07:39:45.789Z,21.98
2019-04-22T07:41:51.391Z,21.75
2019-04-22T07:42:50.412Z,22.05
2019-04-22T07:44:12.021Z,22.09
2019-04-22T07:44:51.021Z,22.08
2019-04-22T07:45:49.155Z,21.42
2019-04-22T07:47:53.836Z,21.70
2019-04-22T07:51:50.164Z,21.73
2019-04-22T07:52:45.026Z,22.11
2019-04-22T07:53:48.475Z,21.94
2019-04-22T07:54:46.894Z,21.13
2019-04-22T07:55:49.024Z,21.13
2019-04-22T07:56:53.849Z,21.53
2019-04-22T07:57:44.512Z,21.24
2019-04-22T07:58:48.954Z,20.46
2019-04-22T07:59:49.454Z,20.61
2019-04-22T08:00:53.339Z,20.90
2019-04-22T08:02:01.999Z,21.86
2019-04-22T08:02:51.730Z,22.23
2019-04-22T08:04:07.252Z,21.82
2019-04-22T08:05:01.390Z,21.61
2019-04-22T08:05:58.770Z,21.82
2019-04-22T08:06:52.809Z,22.41
2019-04-22T08:07:54.184Z,22.44
2019-04-22T08:08:45.130Z,21.59
2019-04-22T08:09:51.018Z,21.00
2019-04-22T08:10:49.992Z,21.45
2019-04-22T08:11:51.253Z,21.83
2019-04-22T08:13:46.959Z,21.89
2019-04-22T08:14:47.867Z,21.26
2019-04-22T08:16:49.386Z,21.63
2019-04-22T08:18:00.263Z,22.06
2019-04-22T08:18:47.280Z,21.67
2019-04-22T08:19:51.527Z,21.96
2019-04-22T08:20:52.075Z,21.55
2019-04-22T08:21:50.915Z,20.90
2019-04-22T08:22:56.082Z,20.87
2019-04-22T08:23:50.825Z,21.12
2019-04-22T08:24:47.192Z,21.53
2019-04-22T08:25:47.598Z,21.18
2019-04-22T08:26:51.339Z,21.53
2019-04-22T08:27:51.897Z,21.83
2019-04-22T08:29:52.233Z,21.64
2019-04-22T08:30:47.449Z,21.24
2019-04-22T08:31:50.611Z,21.30
2019-04-22T08:32:49.294Z,21.51
2019-04-22T08:33:52.450Z,21.64
2019-04-22T08:34:44.019Z,20.79
2019-04-22T08:36:00.855Z,19.65
2019-04-22T08:37:50.759Z,20.68
2019-04-22T08:38:54.259Z,20.94
2019-04-22T08:40:07.722Z,21.01
2019-04-22T08:40:53.833Z,21.55
2019-04-22T08:44:00.970Z,20.50
2019-04-22T08:45:06.236Z,21.13
2019-04-22T08:46:57.859Z,22.31
2019-04-22T08:48:01.794Z,21.03
2019-04-22T08:49:02.259Z,20.56
2019-04-22T08:49:56.976Z,20.98
2019-04-22T08:50:44.668Z,21.89
2019-04-22T08:51:45.857Z,22.60
2019-04-22T08:52:52.488Z,21.90
2019-04-22T08:53:56.190Z,21.42
2019-04-22T08:54:50.577Z,21.70
2019-04-22T08:56:01.871Z,21.82
2019-04-22T08:58:52.323Z,22.42
2019-04-22T08:59:48.642Z,23.37
2019-04-22T09:00:49.963Z,23.93
2019-04-22T09:01:45.023Z,23.34
2019-04-22T09:02:46.735Z,22.72
2019-04-22T09:03:46.998Z,22.24
2019-04-22T09:04:42.112Z,21.75
2019-04-22T09:05:57.325Z,22.05
2019-04-22T09:07:48.972Z,22.81
2019-04-22T09:08:50.501Z,24.08
2019-04-22T09:09:53.342Z,24.30
2019-04-22T09:10:51.795Z,23.11
2019-04-22T09:11:46.934Z,22.44
2019-04-22T09:12:57.611Z,21.66
2019-04-22T09:13:49.821Z,22.01
2019-04-22T09:14:45.829Z,22.63
2019-04-22T09:15:55.402Z,22.88
2019-04-22T09:16:48.256Z,23.04
2019-04-22T09:17:50.913Z,23.25
2019-04-22T09:18:48.658Z,23.52
2019-04-22T09:19:48.124Z,23.12
2019-04-22T09:20:48.632Z,22.99
2019-04-22T09:21:54.535Z,23.14
2019-04-22T09:22:48.407Z,22.46
2019-04-22T09:23:52.442Z,22.23
2019-04-22T09:24:46.963Z,21.51
2019-04-22T09:25:51.077Z,21.96
2019-04-22T09:26:47.669Z,21.98
2019-04-22T09:28:54.506Z,21.58
2019-04-22T09:29:42.958Z,21.01
2019-04-22T09:30:47.101Z,20.81
2019-04-22T09:31:56.613Z,21.68
2019-04-22T09:32:55.760Z,21.61
2019-04-22T09:33:43.230Z,22.86
2019-04-22T09:34:47.401Z,22.76
2019-04-22T09:35:52.000Z,22.19
2019-04-22T09:36:50.354Z,23.01
2019-04-22T09:37:48.275Z,23.60
2019-04-22T09:39:51.255Z,23.87
2019-04-22T09:40:46.924Z,23.32
2019-04-22T09:41:40.090Z,22.91
2019-04-22T09:42:50.401Z,22.94
2019-04-22T09:43:53.690Z,22.69
2019-04-22T09:44:47.622Z,23.45
2019-04-22T09:45:49.511Z,23.93
2019-04-22T09:46:48.376Z,24.33
2019-04-22T09:47:53.849Z,25.16
2019-04-22T09:48:50.140Z,26.13
2019-04-22T09:49:53.193Z,26.32
2019-04-22T09:50:48.197Z,26.93
2019-04-22T09:51:50.182Z,27.33
2019-04-22T09:52:51.625Z,25.78
2019-04-22T09:53:54.158Z,24.90
2019-04-22T09:54:53.119Z,24.21
2019-04-22T09:55:43.047Z,23.68
2019-04-22T09:56:49.274Z,23.19
2019-04-22T09:57:46.060Z,23.60
2019-04-22T09:58:53.488Z,23.77
2019-04-22T09:59:54.432Z,23.89
2019-04-22T10:00:53.962Z,23.42
2019-04-22T10:02:03.964Z,23.12
2019-04-22T10:02:49.043Z,22.64
2019-04-22T10:03:54.652Z,22.15
2019-04-22T10:04:52.036Z,22.42
2019-04-22T10:05:51.835Z,23.56
2019-04-22T10:06:40.691Z,24.99
2019-04-22T10:07:50.555Z,25.86
2019-04-22T10:10:49.136Z,27.27
2019-04-22T10:11:47.088Z,26.20
2019-04-22T10:13:52.578Z,22.93
2019-04-22T10:15:48.132Z,23.87
2019-04-22T10:17:44.407Z,22.72
2019-04-22T10:18:46.437Z,21.77
2019-04-22T10:19:49.409Z,21.98
2019-04-22T10:20:45.872Z,23.09
2019-04-22T10:21:57.283Z,24.09
2019-04-22T10:22:46.399Z,23.34
2019-04-22T10:23:44.330Z,22.39
2019-04-22T10:24:44.613Z,22.60
2019-04-22T10:25:45.992Z,22.64
2019-04-22T10:26:43.979Z,23.01
2019-04-22T10:27:51.346Z,24.19
2019-04-22T10:28:54.138Z,24.75
2019-04-22T10:30:00.267Z,25.46
2019-04-22T10:31:46.604Z,25.97
2019-04-22T10:32:46.225Z,25.20
2019-04-22T10:33:36.232Z,25.29
2019-04-22T10:34:32.514Z,25.49
2019-04-22T10:35:23.629Z,24.14
2019-04-22T10:36:21.487Z,23.47
2019-04-22T10:37:23.436Z,23.16
2019-04-22T10:38:19.494Z,23.60
2019-04-22T10:39:20.331Z,22.64
2019-04-22T10:40:19.627Z,22.79
2019-04-22T10:41:20.719Z,22.36
2019-04-22T10:42:20.813Z,22.15
2019-04-22T10:43:19.453Z,22.35
2019-04-22T10:44:19.460Z,22.30
2019-04-22T10:45:19.434Z,23.04
2019-04-22T10:46:19.940Z,24.19
2019-04-22T10:47:20.087Z,25.09
2019-04-22T10:48:19.434Z,25.36
2019-04-22T10:49:20.298Z,25.90
2019-04-22T10:50:20.614Z,25.96
2019-04-22T10:51:19.383Z,25.53
2019-04-22T10:52:19.362Z,24.55
2019-04-22T10:53:19.816Z,24.27
2019-04-22T10:54:19.757Z,23.90
2019-04-22T10:55:19.333Z,23.60
2019-04-22T10:56:19.331Z,23.59
2019-04-22T10:57:20.134Z,23.94
2019-04-22T10:58:20.747Z,24.71
2019-04-22T10:59:20.626Z,25.11
2019-04-22T11:00:19.748Z,24.27
2019-04-22T11:01:19.271Z,24.41
2019-04-22T11:02:19.294Z,24.39
2019-04-22T11:03:20.251Z,25.01
2019-04-22T11:04:19.486Z,25.63
2019-04-22T11:05:19.935Z,24.90
2019-04-22T11:06:19.272Z,24.00
2019-04-22T11:07:24.578Z,24.60
2019-04-22T11:08:29.773Z,25.83
2019-04-22T11:09:23.281Z,26.87
2019-04-22T11:10:35.227Z,26.56
2019-04-22T11:11:32.652Z,25.23
2019-04-22T11:12:23.396Z,24.89
2019-04-22T11:13:20.255Z,24.79
2019-04-22T11:14:19.166Z,24.80
2019-04-22T11:15:19.143Z,23.87
2019-04-22T11:16:19.443Z,23.86
2019-04-22T11:17:19.550Z,24.19
2019-04-22T11:18:19.856Z,24.99
2019-04-22T11:19:19.484Z,25.26
2019-04-22T11:20:19.846Z,26.36
2019-04-22T11:21:19.944Z,26.88
2019-04-22T11:22:25.458Z,27.53
2019-04-22T11:23:20.612Z,27.24
2019-04-22T11:24:19.095Z,26.21
2019-04-22T11:25:19.043Z,25.59
2019-04-22T11:26:19.870Z,26.29
2019-04-22T11:27:19.041Z,25.41
2019-04-22T11:28:19.924Z,25.66
2019-04-22T11:29:19.580Z,26.13
2019-04-22T11:30:23.677Z,26.11
2019-04-22T11:31:20.706Z,26.03
2019-04-22T11:32:20.238Z,25.12
2019-04-22T11:33:20.452Z,23.74
2019-04-22T11:34:19.395Z,23.22
2019-04-22T11:35:19.529Z,23.77
2019-04-22T11:36:19.925Z,23.49
2019-04-22T11:37:18.942Z,23.49
2019-04-22T11:38:19.127Z,24.12
2019-04-22T11:39:19.743Z,24.19
2019-04-22T11:40:25.453Z,25.17
2019-04-22T11:41:21.461Z,26.12
2019-04-22T11:42:20.338Z,25.66
2019-04-22T11:43:19.953Z,25.57
2019-04-22T11:44:19.166Z,25.12
2019-04-22T11:45:19.336Z,25.16
2019-04-22T11:46:18.872Z,25.91
2019-04-22T11:47:19.292Z,26.21
2019-04-22T11:48:19.532Z,25.19
2019-04-22T11:49:18.820Z,24.61
2019-04-22T11:50:19.900Z,24.53
2019-04-22T11:51:20.001Z,24.75
2019-04-22T11:52:20.396Z,24.11
2019-04-22T11:53:18.778Z,24.45
2019-04-22T11:54:18.932Z,24.94
2019-04-22T11:55:19.173Z,25.42
2019-04-22T11:56:18.918Z,25.61
2019-04-22T11:57:19.128Z,24.68
2019-04-22T11:58:19.063Z,25.12
2019-04-22T11:59:18.758Z,25.56
2019-04-22T12:00:18.798Z,26.12
2019-04-22T12:01:19.194Z,26.86
2019-04-22T12:02:20.044Z,27.76
2019-04-22T12:03:18.881Z,28.48
2019-04-22T12:04:20.026Z,29.02
2019-04-22T12:05:19.625Z,29.26
2019-04-22T12:06:19.840Z,29.54
2019-04-22T12:07:19.046Z,30.04
2019-04-22T12:08:18.657Z,29.52
2019-04-22T12:09:19.523Z,28.87
2019-04-22T12:10:29.598Z,28.11
2019-04-22T12:11:20.654Z,26.83
2019-04-22T12:12:18.617Z,26.96
2019-04-22T12:13:19.839Z,26.90
2019-04-22T12:14:19.992Z,26.65
2019-04-22T12:15:19.089Z,26.04
2019-04-22T12:16:19.192Z,24.30
2019-04-22T12:17:19.976Z,24.15
2019-04-22T12:18:19.560Z,24.09
2019-04-22T12:19:19.034Z,23.92
2019-04-22T12:20:20.210Z,23.39
2019-04-22T12:21:19.385Z,24.16
2019-04-22T12:22:18.524Z,24.87
2019-04-22T12:23:18.968Z,24.99
2019-04-22T12:24:19.307Z,25.34
2019-04-22T12:25:33.546Z,26.23
2019-04-22T12:26:21.003Z,25.93
2019-04-22T12:27:20.410Z,25.97
2019-04-22T12:28:19.106Z,26.16
2019-04-22T12:29:18.432Z,26.81
2019-04-22T12:30:19.577Z,26.88
2019-04-22T12:31:19.595Z,27.95
2019-04-22T12:32:18.634Z,27.53
2019-04-22T12:33:19.187Z,27.80
2019-04-22T12:34:19.642Z,27.45
2019-04-22T12:35:19.686Z,27.18
2019-04-22T12:36:18.427Z,26.87
2019-04-22T12:37:27.339Z,27.02
2019-04-22T12:38:20.319Z,26.49
2019-04-22T12:39:18.334Z,25.96
2019-04-22T12:40:31.335Z,25.71
2019-04-22T12:41:19.707Z,25.97
2019-04-22T12:42:19.590Z,26.38
2019-04-22T12:43:20.533Z,26.11
2019-04-22T12:44:18.294Z,25.66
2019-04-22T12:45:18.438Z,25.29
2019-04-22T12:46:18.558Z,25.11
2019-04-22T12:47:18.280Z,24.59
2019-04-22T12:48:19.095Z,24.12
2019-04-22T12:49:18.273Z,24.21
2019-04-22T12:50:24.070Z,24.11
2019-04-22T12:51:20.570Z,23.31
2019-04-22T12:52:26.627Z,22.67
2019-04-22T12:53:22.609Z,23.03
2019-04-22T12:54:19.362Z,22.69
2019-04-22T12:55:19.585Z,23.06
2019-04-22T12:56:19.369Z,24.00
2019-04-22T12:57:18.727Z,24.68
2019-04-22T12:58:18.222Z,24.99
2019-04-22T12:59:19.298Z,26.01
2019-04-22T13:00:18.140Z,26.03
2019-04-22T13:01:19.091Z,25.75
2019-04-22T13:02:18.804Z,26.73
2019-04-22T13:03:18.277Z,27.45
2019-04-22T13:04:21.211Z,27.84
2019-04-22T13:05:18.563Z,28.32
2019-04-22T13:06:19.419Z,28.74
2019-04-22T13:07:18.067Z,28.55
2019-04-22T13:08:18.135Z,27.05
2019-04-22T13:09:19.483Z,26.57
2019-04-22T13:10:18.053Z,25.86
2019-04-22T13:11:21.664Z,25.69
2019-04-22T13:12:19.365Z,25.12
2019-04-22T13:13:18.879Z,25.48
2019-04-22T13:14:19.180Z,25.08
2019-04-22T13:15:18.273Z,25.86
2019-04-22T13:16:18.022Z,26.60
2019-04-22T13:17:18.962Z,27.12
2019-04-22T13:18:27.661Z,27.71
2019-04-22T13:19:20.950Z,27.38
2019-04-22T13:20:19.847Z,27.90
2019-04-22T13:21:18.566Z,27.78
2019-04-22T13:22:19.069Z,26.71
2019-04-22T13:23:18.188Z,26.39
2019-04-22T13:24:19.845Z,26.20
2019-04-22T13:25:17.893Z,26.84
2019-04-22T13:26:18.997Z,26.98
2019-04-22T13:27:19.307Z,26.09
2019-04-22T13:28:19.058Z,25.11
2019-04-22T13:29:19.298Z,24.64
2019-04-22T13:30:18.640Z,24.29
2019-04-22T13:31:20.736Z,24.37
2019-04-22T13:32:18.668Z,23.93
2019-04-22T13:33:19.248Z,23.49
2019-04-22T13:34:26.116Z,23.63
2019-04-22T13:35:20.241Z,23.50
2019-04-22T13:36:20.649Z,23.75
2019-04-22T13:37:19.153Z,23.29
2019-04-22T13:38:19.001Z,23.31
2019-04-22T13:39:18.793Z,23.53
2019-04-22T13:40:19.071Z,23.84
2019-04-22T13:41:28.866Z,23.26
2019-04-22T13:42:21.696Z,23.14
2019-04-22T13:43:18.783Z,23.50
2019-04-22T13:44:18.962Z,24.29
2019-04-22T13:45:17.962Z,25.19
2019-04-22T13:46:17.691Z,25.59
2019-04-22T13:47:37.405Z,26.41
2019-04-22T13:48:38.816Z,26.28
2019-04-22T13:49:51.420Z,24.63
2019-04-22T13:50:49.434Z,23.26
2019-04-22T13:51:52.133Z,22.61
2019-04-22T13:52:53.621Z,22.60
2019-04-22T13:54:48.852Z,22.63
2019-04-22T13:55:48.477Z,22.81
2019-04-22T13:56:40.284Z,22.94
2019-04-22T13:57:39.948Z,23.18
2019-04-22T13:58:35.773Z,24.19
2019-04-22T13:59:28.200Z,25.02
2019-04-22T14:00:18.577Z,24.63
2019-04-22T14:01:18.726Z,24.33
2019-04-22T14:02:18.866Z,23.31
2019-04-22T14:03:18.393Z,22.88
2019-04-22T14:04:18.562Z,23.00
2019-04-22T14:05:18.937Z,23.38
2019-04-22T14:06:18.612Z,23.29
2019-04-22T14:07:18.809Z,23.81
2019-04-22T14:08:18.445Z,24.04
2019-04-22T14:09:18.613Z,24.53
2019-04-22T14:10:18.481Z,24.68
2019-04-22T14:11:31.741Z,25.29
2019-04-22T14:12:21.290Z,25.64
2019-04-22T14:13:17.446Z,25.11
2019-04-22T14:14:17.753Z,23.87
2019-04-22T14:15:18.050Z,23.25
2019-04-22T14:16:17.386Z,23.45
2019-04-22T14:17:18.465Z,23.07
2019-04-22T14:18:17.366Z,23.34
2019-04-22T14:19:18.411Z,23.57
2019-04-22T14:20:18.676Z,23.93
2019-04-22T14:21:18.474Z,23.19
2019-04-22T14:22:17.853Z,22.35
2019-04-22T14:23:17.437Z,22.66
2019-04-22T14:24:17.885Z,23.63
2019-04-22T14:25:18.693Z,23.49
2019-04-22T14:26:17.576Z,23.37
2019-04-22T14:27:27.968Z,23.49
2019-04-22T14:28:21.151Z,22.76
2019-04-22T14:29:17.587Z,22.51
2019-04-22T14:30:18.663Z,22.42
2019-04-22T14:31:18.193Z,22.39
2019-04-22T14:33:18.375Z,22.63
2019-04-22T14:34:18.789Z,22.45
2019-04-22T14:35:18.505Z,22.09
2019-04-22T14:36:17.217Z,21.86
2019-04-22T14:37:18.612Z,21.86
2019-04-22T14:38:18.339Z,21.89
2019-04-22T14:39:17.818Z,21.71
2019-04-22T14:40:18.778Z,21.86